CW1988 Weather Reports


Display with metric or nautical units.
time (UTC)temp
F
wind
direction
speed
MPH
gust
MPH
rain 1hr
in
rain 24hr
in
rain mn
in
humidity
%
barometer
mb
20240620162728 68 195 0.0 0.0 0.00 0.37 0.37 89 1028.9
20240620162227 68 184 0.0 0.0 0.00 0.37 0.37 90 1028.9
20240620161725 67 185 0.0 0.0 0.00 0.37 0.37 91 1028.9
20240620161223 66 179 0.0 0.0 0.00 0.37 0.37 91 1029.0
20240620160722 66 180 0.0 0.0 0.00 0.37 0.37 91 1029.0
20240620160222 67 183 0.0 0.0 0.00 0.37 0.37 92 1028.8
20240620155721 67 182 0.0 0.0 0.00 0.37 0.37 91 1028.9
20240620155220 66 183 0.0 0.0 0.00 0.37 0.37 92 1029.0
20240620154718 66 185 0.0 0.0 0.00 0.37 0.37 92 1029.1
20240620154216 66 189 0.0 0.0 0.00 0.37 0.37 92 1029.0
20240620153716 65 181 1.0 1.0 0.00 0.37 0.37 92 1029.0
20240620153213 66 184 0.0 0.0 0.00 0.37 0.37 92 1029.1
20240620152713 66 183 1.0 1.0 0.00 0.37 0.37 92 1029.1
20240620152211 66 186 0.0 0.0 0.00 0.37 0.37 94 1029.1
20240620151708 65 183 0.0 0.0 0.00 0.37 0.37 94 1029.0
20240620151157 65 195 0.0 0.0 0.00 0.37 0.37 94 1029.0
20240620150655 64 184 0.0 0.0 0.00 0.37 0.37 95 1028.9
20240620150150 64 187 0.0 0.0 0.00 0.37 0.37 95 1028.9
20240620145649 64 181 0.0 0.0 0.00 0.37 0.37 95 1028.9
20240620145145 64 184 1.0 1.0 0.00 0.37 0.37 96 1029.0
20240620144645 64 183 0.0 0.0 0.00 0.37 0.37 96 1028.9
20240620144144 63 184 0.0 0.0 0.00 0.37 0.37 96 1028.9
20240620143643 64 184 0.0 0.0 0.00 0.37 0.37 96 1028.9
20240620143142 63 184 0.0 1.0 0.00 0.37 0.37 96 1028.8
20240620142640 63 192 1.0 1.0 0.00 0.37 0.37 97 1028.7
20240620142139 63 176 0.0 1.0 0.00 0.37 0.37 97 1028.7
20240620141637 63 183 0.0 0.0 0.04 0.37 0.37 97 1028.8
20240620141136 63 190 1.0 2.0 0.04 0.37 0.37 97 1028.8
20240620140634 63 163 0.0 1.0 0.11 0.37 0.37 97 1028.9
20240620140132 63 184 0.0 1.0 0.14 0.37 0.37 97 1029.0
20240620135631 62 187 0.0 0.0 0.11 0.35 0.35 97 1029.0
20240620135131 62 187 0.0 0.0 0.11 0.34 0.34 97 1028.8
20240620134630 62 184 0.0 0.0 0.07 0.33 0.33 97 1028.9
20240620134127 62 183 0.0 0.0 0.04 0.32 0.32 97 1028.9
20240620133626 62 185 0.0 0.0 0.16 0.32 0.32 97 1028.7
20240620133124 62 180 0.0 0.0 0.18 0.31 0.31 96 1028.9
20240620132623 62 184 0.0 0.0 0.18 0.29 0.29 96 1029.0
20240620132121 62 187 0.0 1.0 0.16 0.28 0.28 96 1028.7
20240620131619 62 184 0.0 0.0 0.16 0.26 0.26 96 1028.8
20240620131119 62 185 0.0 0.0 0.11 0.24 0.24 96 1028.9
20240620130619 62 179 0.0 0.0 0.14 0.24 0.24 96 1028.9
20240620130117 62 182 0.0 0.0 0.11 0.22 0.22 96 1028.8
20240620125615 62 183 0.0 0.0 0.04 0.21 0.21 96 1028.7
20240620125114 62 183 0.0 0.0 0.07 0.20 0.20 96 1028.7
20240620124613 62 177 0.0 0.0 0.11 0.20 0.20 96 1028.9
20240620124111 62 182 0.0 0.0 0.11 0.19 0.19 96 1029.0
20240620123611 62 183 0.0 0.0 0.11 0.18 0.18 96 1028.9
20240620123110 63 182 0.0 0.0 0.04 0.17 0.17 96 1028.6
20240620122607 63 185 0.0 0.0 0.00 0.16 0.16 96 1028.7
20240620122108 63 184 0.0 0.0 0.07 0.16 0.16 96 1028.7
20240620121605 63 187 0.0 0.0 0.07 0.16 0.16 96 1028.7
20240620121103 63 184 0.0 0.0 0.04 0.15 0.15 96 1028.8
20240620120601 63 184 0.0 1.0 0.11 0.15 0.15 96 1028.6
20240620120059 63 184 0.0 0.0 0.11 0.15 0.15 96 1028.5
20240620115557 63 185 0.0 0.0 0.11 0.13 0.13 96 1028.5
20240620115056 63 177 0.0 0.0 0.14 0.13 0.13 96 1028.7
20240620114554 63 184 0.0 0.0 0.11 0.11 0.11 96 1028.7
20240620114053 63 166 0.0 0.0 0.11 0.10 0.10 95 1028.3
20240620113551 64 183 0.0 0.0 0.18 0.09 0.09 95 1028.4
20240620113050 64 183 0.0 0.0 0.16 0.08 0.08 95 1028.4
20240620112549 64 185 0.0 0.0 0.04 0.06 0.06 95 1028.2
20240620112048 65 180 0.0 1.0 0.00 0.05 0.05 95 1027.9
20240620111547 66 179 0.0 1.0 0.00 0.05 0.05 95 1027.9
20240620111045 67 184 0.0 0.0 0.00 0.05 0.05 96 1027.9
20240620110544 67 185 0.0 0.0 0.00 0.05 0.05 96 1027.4
20240620110042 67 186 0.0 0.0 0.00 0.05 0.05 96 1027.4
20240620105540 67 185 0.0 0.0 0.00 0.05 0.05 96 1027.5
20240620105039 68 184 0.0 0.0 0.00 0.05 0.05 96 1027.5
20240620104538 68 185 0.0 0.0 0.07 0.05 0.05 96 1027.6
20240620104038 68 187 0.0 0.0 0.11 0.05 0.05 96 1027.4
20240620103537 68 181 0.0 0.0 0.16 0.04 0.04 96 1027.3
20240620103035 68 180 0.0 0.0 0.11 0.02 0.02 95 1027.4
20240620102533 68 185 0.0 0.0 0.11 0.02 0.02 95 1027.4
20240620102033 69 185 0.0 0.0 0.04 0.00 0.00 95 1027.4
20240620101531 69 175 0.0 0.0 0.00 0.00 0.00 94 1027.1
20240620101031 69 182 0.0 0.0 0.00 0.00 0.00 94 1027.3
20240620100529 69 184 0.0 0.0 0.00 0.00 0.00 94 1027.2
20240620100030 69 183 0.0 0.0 0.00 0.00 0.00 94 1027.1
20240620095528 69 183 0.0 0.0 0.00 0.00 0.00 93 1027.0
20240620095028 69 184 0.0 0.0 0.00 0.00 0.00 93 1027.0
20240620094525 69 172 0.0 0.0 0.00 0.00 0.00 93 1026.9
20240620094023 69 187 0.0 0.0 0.00 0.00 0.00 93 1027.0
20240620093523 69 184 0.0 0.0 0.00 0.00 0.00 93 1026.9
20240620093021 69 182 0.0 0.0 0.00 0.00 0.00 93 1026.9
20240620092520 70 184 0.0 0.0 0.00 0.00 0.00 93 1026.7
20240620092017 70 183 0.0 1.0 0.00 0.00 0.00 92 1026.8
20240620091516 70 184 0.0 0.0 0.00 0.00 0.00 92 1026.8
20240620091015 70 185 0.0 1.0 0.00 0.00 0.00 91 1026.6
20240620090515 70 183 0.0 1.0 0.00 0.00 0.00 91 1026.7
20240620090014 70 184 0.0 0.0 0.00 0.00 0.00 91 1026.8
20240620085513 70 183 0.0 0.0 0.00 0.00 0.00 91 1026.7
20240620085011 70 184 0.0 0.0 0.00 0.00 0.00 91 1026.8
20240620084509 70 180 0.0 1.0 0.00 0.00 0.00 91 1026.7
20240620084009 70 183 0.0 0.0 0.00 0.00 0.00 91 1026.8
20240620083507 70 187 0.0 0.0 0.00 0.00 0.00 91 1026.6
20240620083006 70 186 0.0 0.0 0.00 0.00 0.00 91 1026.7
20240620082506 70 181 0.0 0.0 0.00 0.00 0.00 91 1026.6
20240620082004 70 181 0.0 0.0 0.00 0.00 0.00 91 1026.4
20240620081504 70 184 0.0 0.0 0.00 0.00 0.00 91 1026.5
20240620081003 71 184 0.0 0.0 0.00 0.00 0.00 91 1026.6
20240620080502 71 184 0.0 0.0 0.00 0.00 0.00 91 1026.8
20240620080001 71 183 0.0 0.0 0.00 0.00 0.00 90 1026.7
20240620075500 71 184 0.0 0.0 0.00 0.00 0.00 90 1026.7
20240620074958 71 164 0.0 0.0 0.00 0.00 0.00 90 1026.7
20240620074456 71 182 0.0 0.0 0.00 0.00 0.00 90 1026.6
20240620073956 71 183 0.0 0.0 0.00 0.00 0.00 90 1026.7
20240620073455 71 184 0.0 0.0 0.00 0.00 0.00 91 1026.7
20240620072953 71 182 0.0 0.0 0.00 0.00 0.00 91 1026.5
20240620072451 71 184 0.0 0.0 0.00 0.00 0.00 91 1026.6
20240620071950 71 185 0.0 0.0 0.00 0.00 0.00 91 1026.7
20240620071449 71 184 0.0 0.0 0.00 0.00 0.00 91 1026.6
20240620070947 71 184 0.0 0.0 0.00 0.00 0.00 91 1026.8
20240620070447 71 180 0.0 0.0 0.00 0.00 0.00 91 1026.6
20240620065946 71 183 0.0 0.0 0.00 0.00 0.00 91 1026.5
20240620065446 71 182 1.0 1.0 0.00 0.00 0.00 90 1026.4
20240620064944 71 182 0.0 0.0 0.00 0.00 0.00 90 1026.6
20240620064444 71 185 0.0 0.0 0.00 0.00 0.00 91 1026.5
20240620063942 71 186 0.0 0.0 0.00 0.00 0.00 91 1026.5
20240620063442 71 181 0.0 0.0 0.00 0.00 0.00 91 1026.7
20240620062941 72 184 0.0 0.0 0.00 0.00 0.00 91 1026.8
20240620062440 72 184 0.0 0.0 0.00 0.00 0.00 91 1026.5
20240620061939 72 184 0.0 0.0 0.00 0.00 0.00 90 1026.6
20240620061437 72 187 0.0 0.0 0.00 0.00 0.00 90 1026.6
20240620060936 72 183 0.0 0.0 0.00 0.00 0.00 90 1026.5
20240620060435 72 182 0.0 0.0 0.00 0.00 0.00 90 1026.5
20240620055934 72 182 0.0 0.0 0.00 0.00 0.00 90 1026.3
20240620055433 72 183 0.0 0.0 0.00 0.00 0.00 90 1026.4
20240620054930 72 184 0.0 0.0 0.00 0.00 0.00 90 1026.5
20240620054429 72 182 0.0 0.0 0.00 0.00 0.00 90 1026.4
20240620053928 72 182 0.0 0.0 0.00 0.00 0.00 90 1026.4
20240620053427 72 180 0.0 0.0 0.00 0.00 0.00 90 1026.4
20240620052927 72 183 0.0 0.0 0.00 0.00 0.00 90 1026.5
20240620052426 72 183 0.0 0.0 0.00 0.00 0.00 90 1026.5
20240620051923 72 183 0.0 0.0 0.00 0.00 0.00 90 1026.6
20240620051421 72 187 0.0 1.0 0.00 0.00 0.00 90 1026.6
20240620050919 72 182 0.0 1.0 0.00 0.00 0.00 90 1026.6
20240620050419 72 182 0.0 0.0 0.00 0.00 0.00 90 1026.4
20240620045918 72 184 0.0 0.0 0.00 0.00 0.00 90 1026.6
20240620045417 72 187 0.0 0.0 0.00 0.00 0.00 90 1026.3
20240620044914 72 187 0.0 0.0 0.00 0.00 0.00 90 1026.4
20240620044413 72 184 0.0 0.0 0.00 0.00 0.00 90 1026.4
20240620043911 72 187 0.0 0.0 0.00 0.00 0.00 90 1026.6
20240620043409 72 185 0.0 0.0 0.00 0.00 0.00 91 1026.4
20240620042908 72 186 0.0 0.0 0.00 0.00 0.00 90 1026.4
20240620042407 72 186 0.0 0.0 0.00 0.00 0.00 89 1026.2
20240620041906 72 186 0.0 0.0 0.00 0.00 0.00 89 1026.4
20240620041406 72 186 0.0 0.0 0.00 0.00 0.00 88 1026.4
20240620040905 72 186 0.0 0.0 0.00 0.00 0.00 88 1026.5
20240620040403 72 186 0.0 0.0 0.00 0.00 0.00 88 1026.5
20240620035902 72 186 0.0 0.0 0.00 0.00 0.00 87 1026.4
20240620035401 73 186 0.0 0.0 0.00 0.00 0.00 87 1026.5
20240620034900 73 186 0.0 0.0 0.00 0.00 0.00 87 1026.3
20240620034358 73 186 0.0 0.0 0.00 0.00 0.00 87 1026.4
20240620033855 73 185 0.0 0.0 0.00 0.00 0.00 86 1026.5
20240620033354 73 185 0.0 0.0 0.00 0.00 0.00 86 1026.2
20240620032853 73 185 0.0 0.0 0.00 0.00 0.00 86 1026.2
20240620032352 73 185 0.0 0.0 0.00 0.00 0.00 85 1026.2
20240620031851 73 185 0.0 0.0 0.00 0.00 0.00 85 1026.3
20240620031349 73 186 0.0 0.0 0.00 0.00 0.00 85 1026.3
20240620030848 73 186 0.0 0.0 0.00 0.00 0.00 85 1026.1
20240620030346 74 185 0.0 0.0 0.00 0.00 0.00 85 1026.0
20240620025844 74 185 0.0 0.0 0.00 0.00 0.00 84 1026.1
20240620025343 74 185 0.0 0.0 0.00 0.00 0.00 84 1026.2
20240620024842 74 185 0.0 0.0 0.00 0.00 0.00 84 1026.2
20240620024340 74 186 0.0 0.0 0.00 0.00 0.00 84 1026.0
20240620023839 74 186 0.0 0.0 0.00 0.00 0.00 84 1026.1
20240620023336 74 185 0.0 0.0 0.00 0.00 0.00 84 1025.9
20240620022835 74 185 0.0 0.0 0.00 0.00 0.00 84 1025.9
20240620022334 74 185 0.0 0.0 0.00 0.00 0.00 83 1025.8
20240620021833 74 185 0.0 0.0 0.00 0.00 0.00 83 1025.8
20240620021331 75 185 0.0 0.0 0.00 0.00 0.00 82 1025.8
20240620020830 75 186 0.0 0.0 0.00 0.00 0.00 82 1025.8
20240620020330 75 187 0.0 0.0 0.00 0.00 0.00 81 1025.5
20240620015828 75 187 0.0 0.0 0.00 0.00 0.00 81 1025.5
20240620015327 75 187 0.0 0.0 0.00 0.00 0.00 81 1025.3
20240620014825 75 182 0.0 0.0 0.00 0.00 0.00 80 1025.3
20240620014325 75 182 0.0 0.0 0.00 0.00 0.00 80 1025.2
20240620013824 76 183 0.0 0.0 0.00 0.00 0.00 79 1025.1
20240620013322 76 183 0.0 0.0 0.00 0.00 0.00 78 1025.3
20240620012821 76 182 0.0 0.0 0.00 0.00 0.00 78 1025.0
20240620012320 76 182 0.0 0.0 0.00 0.00 0.00 78 1025.1
20240620011819 77 182 0.0 0.0 0.00 0.00 0.00 77 1024.9
20240620011315 77 183 0.0 0.0 0.00 0.00 0.00 76 1024.8
20240620010649 77 185 0.0 0.0 0.00 0.00 0.00 75 1024.9
20240620010148 77 182 0.0 0.0 0.00 0.00 0.00 75 1024.7
20240620005647 78 187 0.0 0.0 0.00 0.00 0.00 74 1024.6
20240620005147 78 186 0.0 0.0 0.00 0.00 0.00 74 1024.9
20240620004645 78 187 0.0 0.0 0.00 0.00 0.00 73 1024.8
20240620004145 78 181 0.0 0.0 0.00 0.00 0.00 72 1024.8
20240620003643 78 182 0.0 0.0 0.00 0.00 0.00 72 1024.7
20240620003141 78 184 0.0 0.0 0.00 0.00 0.00 73 1024.9
20240620002640 78 184 0.0 0.0 0.00 0.00 0.00 74 1024.7
20240620002140 78 184 1.0 1.0 0.00 0.00 0.00 72 1024.8
20240620001639 78 185 0.0 0.0 0.00 0.00 0.00 72 1024.8
20240620001139 78 185 0.0 0.0 0.00 0.00 0.00 72 1024.8
20240620000638 79 186 0.0 0.0 0.00 0.00 0.00 71 1024.8
20240620000137 79 183 0.0 0.0 0.00 0.00 0.00 70 1024.7
20240619235636 79 186 0.0 1.0 0.00 0.00 0.00 71 1024.8
20240619235130 79 182 0.0 0.0 0.00 0.00 0.00 71 1024.7
20240619234629 80 183 0.0 0.0 0.00 0.00 0.00 69 1024.8
20240619234129 80 177 0.0 0.0 0.00 0.00 0.00 71 1024.5
20240619233628 80 185 0.0 0.0 0.00 0.00 0.00 70 1024.6
20240619233127 80 182 0.0 0.0 0.00 0.00 0.00 68 1024.6
20240619232625 80 184 0.0 0.0 0.00 0.00 0.00 66 1024.5
20240619232123 81 186 0.0 0.0 0.00 0.00 0.00 66 1024.4
20240619231621 80 187 0.0 1.0 0.00 0.00 0.00 65 1024.3
20240619231120 80 183 0.0 0.0 0.00 0.00 0.00 68 1024.3
20240619230619 80 183 0.0 0.0 0.00 0.00 0.00 66 1024.1
20240619230118 81 184 0.0 0.0 0.00 0.00 0.00 68 1024.2
20240619225616 81 185 0.0 0.0 0.00 0.00 0.00 67 1024.1
20240619225114 82 183 0.0 0.0 0.00 0.00 0.00 66 1023.8
20240619224612 82 184 0.0 0.0 0.00 0.00 0.00 65 1023.8
20240619224111 83 184 0.0 0.0 0.00 0.00 0.00 65 1023.8
20240619223609 83 190 0.0 0.0 0.00 0.00 0.00 66 1023.8
20240619223106 84 178 1.0 1.0 0.00 0.00 0.00 64 1024.2
20240619222605 84 187 0.0 1.0 0.00 0.00 0.00 65 1023.9
20240619222104 86 182 0.0 1.0 0.00 0.00 0.00 64 1023.9
20240619221603 86 185 0.0 0.0 0.00 0.00 0.00 64 1023.7
20240619221102 88 182 0.0 0.0 0.00 0.00 0.00 62 1023.7
20240619220600 90 183 0.0 0.0 0.00 0.00 0.00 60 1023.5
20240619220059 91 187 0.0 0.0 0.00 0.00 0.00 57 1023.6
20240619215559 92 182 0.0 0.0 0.00 0.00 0.00 53 1023.3
20240619215057 91 189 0.0 0.0 0.00 0.00 0.00 50 1023.3
20240619214555 91 185 0.0 0.0 0.00 0.00 0.00 53 1023.3
20240619214053 90 184 0.0 0.0 0.00 0.00 0.00 56 1023.3
20240619213552 90 186 0.0 1.0 0.00 0.00 0.00 54 1023.4
20240619213049 91 185 1.0 1.0 0.00 0.00 0.00 51 1023.2
20240619212550 92 183 0.0 0.0 0.00 0.00 0.00 52 1023.3
20240619212048 94 187 0.0 1.0 0.00 0.00 0.00 51 1023.2
20240619211546 93 184 0.0 1.0 0.00 0.00 0.00 51 1023.2
20240619211045 93 184 0.0 1.0 0.00 0.00 0.00 52 1023.3
20240619210543 90 185 0.0 1.0 0.00 0.00 0.00 53 1023.3
20240619210043 89 192 1.0 1.0 0.00 0.00 0.00 52 1023.2
20240619205542 90 183 2.0 3.0 0.00 0.00 0.00 52 1023.1
20240619205040 91 185 1.0 2.0 0.00 0.00 0.00 50 1023.2
20240619204538 92 185 1.0 2.0 0.00 0.00 0.00 49 1023.4
20240619204037 92 183 2.0 2.0 0.00 0.00 0.00 48 1023.0
20240619203535 93 187 2.0 3.0 0.00 0.00 0.00 48 1023.3
20240619203034 94 188 2.0 2.0 0.00 0.00 0.00 48 1023.1
20240619202533 94 186 0.0 0.0 0.00 0.00 0.00 47 1023.1
20240619202032 94 185 0.0 1.0 0.00 0.00 0.00 51 1023.3
20240619201529 93 160 2.0 3.0 0.00 0.00 0.00 48 1023.5
20240619201027 94 185 3.0 4.0 0.00 0.00 0.00 48 1023.3
20240619200526 94 187 2.0 2.0 0.00 0.00 0.00 49 1023.3
20240619200023 93 185 0.0 1.0 0.00 0.00 0.00 50 1023.4
20240619195521 92 185 1.0 2.0 0.00 0.00 0.00 50 1023.6
20240619195021 93 186 1.0 2.0 0.00 0.00 0.00 50 1023.6
20240619194519 93 177 2.0 2.0 0.00 0.00 0.00 49 1023.5
20240619194018 92 187 0.0 1.0 0.00 0.00 0.00 49 1023.5
20240619193518 92 184 3.0 4.0 0.00 0.00 0.00 50 1023.6
20240619193017 93 184 3.0 4.0 0.00 0.00 0.00 48 1023.6
20240619192516 93 186 2.0 3.0 0.00 0.00 0.00 47 1023.7
20240619192015 93 185 1.0 2.0 0.00 0.00 0.00 50 1023.7
20240619191513 92 187 0.0 0.0 0.00 0.00 0.00 53 1023.7
20240619191012 93 187 2.0 4.0 0.00 0.00 0.00 50 1023.6
20240619190511 92 187 2.0 3.0 0.00 0.00 0.00 49 1023.6
20240619190010 91 187 2.0 2.0 0.00 0.00 0.00 52 1023.6
20240619185508 91 187 2.0 3.0 0.00 0.00 0.00 52 1023.7
20240619185006 91 189 2.0 3.0 0.00 0.00 0.00 51 1023.8
20240619184502 90 193 2.0 3.0 0.00 0.00 0.00 53 1023.8
20240619184001 90 189 1.0 1.0 0.00 0.00 0.00 54 1023.6
20240619183459 91 187 0.0 0.0 0.00 0.00 0.00 55 1023.6
20240619182957 91 185 1.0 2.0 0.00 0.00 0.00 53 1023.6
20240619182455 90 180 2.0 3.0 0.00 0.00 0.00 53 1023.7
20240619181955 91 192 1.0 1.0 0.00 0.00 0.00 53 1023.5
20240619181454 91 188 1.0 1.0 0.00 0.00 0.00 52 1023.6
20240619180952 91 187 2.0 2.0 0.00 0.00 0.00 54 1023.6
20240619180448 90 186 0.0 1.0 0.00 0.00 0.00 53 1023.5
20240619175938 91 177 1.0 2.0 0.00 0.00 0.00 53 1023.5
20240619175437 91 184 2.0 3.0 0.00 0.00 0.00 53 1023.6
20240619174936 90 187 1.0 1.0 0.00 0.00 0.00 54 1023.7
20240619174432 91 195 3.0 6.0 0.00 0.00 0.00 54 1023.4
20240619173932 93 184 1.0 2.0 0.00 0.00 0.00 54 1023.6
20240619173430 92 182 1.0 1.0 0.00 0.00 0.00 54 1023.5
20240619172928 92 189 1.0 1.0 0.00 0.00 0.00 54 1023.4
20240619172427 91 179 2.0 3.0 0.00 0.00 0.00 55 1023.4
20240619171925 91 187 2.0 3.0 0.00 0.00 0.00 53 1023.3
20240619171423 90 178 1.0 2.0 0.00 0.00 0.00 55 1023.2
20240619170922 90 180 3.0 4.0 0.00 0.00 0.00 53 1023.2
20240619170418 91 187 1.0 1.0 0.00 0.00 0.00 55 1023.0
20240619165916 91 193 4.0 6.0 0.00 0.00 0.00 52 1023.3
20240619165414 90 187 1.0 1.0 0.00 0.00 0.00 55 1023.2
20240619164913 90 179 1.0 2.0 0.00 0.00 0.00 56 1023.3
20240619164413 90 186 1.0 2.0 0.00 0.00 0.00 55 1023.3
20240619163911 89 185 1.0 1.0 0.00 0.00 0.00 56 1023.1
20240619163410 89 180 2.0 3.0 0.00 0.00 0.00 57 1023.1